0XA6 weather

Jaxon Landing Heliport
Lubbock, Texas, United States

Public forecast

Using degrees Fahrenheit for public forecast. Weather courtesy of forecast.io.

Closest aviation weather report (METAR) to Jaxon Landing Heliport

Closest report is Lubbock Preston Smith International Airport, 14.1 nm (26.1 km) NNE. Retrieved 2020/08/08 05:09 UTC (6 minutes ago):

KLBB 080509Z 27019KT 10SM FEW070 SCT110 BKN140 OVC220 24/16 A3014

Closest aviation forecast (TAF) to Jaxon Landing Heliport

Closest forecast is Lubbock Preston Smith International Airport, 14.1 nm (26.1 km) NNE. Retrieved 2020-08-08 00:22 UTC (5 hours ago):

TAF KLBB 072320Z 0800/0824 18015KT P6SM VCTS SCT090CB BKN150 FM080300 16007KT P6SM SCT150 BKN250